createdAt,value
2022-11-17T00:01:49.508Z,15.35
2022-11-17T00:03:59.223Z,14.48
2022-11-17T00:06:06.057Z,14.00
2022-11-17T00:08:10.822Z,13.75
2022-11-17T00:10:20.224Z,14.10
2022-11-17T00:12:37.399Z,14.40
2022-11-17T00:14:44.194Z,14.35
2022-11-17T00:16:52.456Z,13.85
2022-11-17T00:19:21.395Z,16.20
2022-11-17T00:21:26.965Z,14.70
2022-11-17T00:23:47.408Z,13.55
2022-11-17T00:25:52.647Z,14.45
2022-11-17T00:27:57.446Z,14.43
2022-11-17T00:30:02.300Z,15.40
2022-11-17T00:32:20.171Z,14.32
2022-11-17T00:34:24.973Z,15.52
2022-11-17T00:36:29.911Z,15.93
2022-11-17T00:38:34.662Z,16.75
2022-11-17T00:40:39.659Z,17.10
2022-11-17T00:42:44.414Z,16.48
2022-11-17T00:44:49.204Z,15.88
2022-11-17T00:46:54.107Z,16.50
2022-11-17T00:48:59.207Z,15.57
2022-11-17T00:51:09.334Z,16.13
2022-11-17T00:53:14.127Z,16.17
2022-11-17T00:55:19.024Z,15.38
2022-11-17T00:57:23.830Z,15.40
2022-11-17T00:59:28.698Z,16.42
2022-11-17T01:01:34.168Z,15.43
2022-11-17T01:03:39.378Z,15.77
2022-11-17T01:05:47.796Z,15.27
2022-11-17T01:07:55.816Z,14.90
2022-11-17T01:10:00.903Z,14.95
2022-11-17T01:12:05.993Z,16.17
2022-11-17T01:14:13.098Z,13.98
2022-11-17T01:16:20.404Z,14.13
2022-11-17T01:18:25.187Z,15.77
2022-11-17T01:20:29.942Z,15.93
2022-11-17T01:22:34.840Z,15.13
2022-11-17T01:24:42.787Z,13.95
2022-11-17T01:26:50.664Z,15.20
2022-11-17T01:28:56.134Z,16.40
2022-11-17T01:31:06.174Z,15.32
2022-11-17T01:33:10.971Z,16.33
2022-11-17T01:35:15.722Z,16.65
2022-11-17T01:37:23.105Z,15.10
2022-11-17T01:39:29.305Z,15.88
2022-11-17T01:41:36.649Z,14.88
2022-11-17T01:43:44.400Z,15.35
2022-11-17T01:45:49.259Z,15.43
2022-11-17T01:47:56.173Z,16.90
2022-11-17T01:50:06.591Z,16.02
2022-11-17T01:52:13.838Z,15.50
2022-11-17T01:54:23.225Z,14.68
2022-11-17T01:56:34.281Z,15.10
2022-11-17T01:58:46.774Z,15.52
2022-11-17T02:00:51.612Z,15.68
2022-11-17T02:02:56.968Z,14.98
2022-11-17T02:05:10.054Z,15.80
2022-11-17T02:07:20.691Z,14.85
2022-11-17T02:09:27.472Z,15.60
2022-11-17T02:11:36.293Z,14.80
2022-11-17T02:13:44.789Z,15.50
2022-11-17T02:15:49.903Z,14.15
2022-11-17T02:17:55.339Z,14.90
2022-11-17T02:20:08.203Z,15.63
2022-11-17T02:22:33.649Z,13.98
2022-11-17T02:25:07.500Z,14.18
2022-11-17T02:27:43.964Z,14.40
2022-11-17T02:29:56.186Z,13.90
2022-11-17T02:32:07.683Z,13.70
2022-11-17T02:34:27.647Z,13.50
2022-11-17T02:36:39.741Z,13.32
2022-11-17T02:38:54.438Z,15.00
2022-11-17T02:41:07.808Z,15.55
2022-11-17T02:43:33.472Z,13.35
2022-11-17T02:45:43.700Z,15.57
2022-11-17T02:47:50.956Z,15.60
2022-11-17T02:50:02.112Z,13.02
2022-11-17T02:52:09.272Z,14.15
2022-11-17T02:54:14.960Z,14.38
2022-11-17T02:56:19.797Z,14.25
2022-11-17T02:58:27.190Z,13.75
2022-11-17T03:00:35.810Z,14.55
2022-11-17T03:03:02.177Z,14.10
2022-11-17T03:05:15.913Z,15.32
2022-11-17T03:07:33.631Z,14.63
2022-11-17T03:09:49.544Z,13.80
2022-11-17T03:14:12.529Z,14.80
2022-11-17T03:16:28.004Z,15.43
2022-11-17T03:18:38.228Z,15.63
2022-11-17T03:20:49.385Z,15.18
2022-11-17T03:23:01.711Z,15.15
2022-11-17T03:25:10.047Z,15.13
2022-11-17T03:27:21.757Z,15.85
2022-11-17T03:29:32.984Z,15.68
2022-11-17T03:31:39.230Z,14.90
2022-11-17T03:33:48.044Z,14.90
2022-11-17T03:35:59.824Z,15.00
2022-11-17T03:38:10.858Z,15.75
2022-11-17T03:40:17.843Z,14.65
2022-11-17T03:42:32.697Z,14.68
2022-11-17T03:44:48.127Z,15.35
2022-11-17T03:46:57.391Z,14.43
2022-11-17T03:49:09.613Z,16.02
2022-11-17T03:51:18.502Z,14.55
2022-11-17T03:53:23.502Z,14.57
2022-11-17T03:55:36.416Z,15.23
2022-11-17T03:57:47.146Z,14.65
2022-11-17T04:00:00.778Z,15.73
2022-11-17T04:02:05.828Z,15.02
2022-11-17T04:06:20.314Z,15.98
2022-11-17T04:08:29.558Z,15.70
2022-11-17T04:10:54.386Z,15.68
2022-11-17T04:13:11.580Z,14.73
2022-11-17T04:15:31.716Z,16.35
2022-11-17T04:17:36.646Z,16.20
2022-11-17T04:19:41.529Z,13.63
2022-11-17T04:21:46.312Z,15.98
2022-11-17T04:23:51.227Z,15.13
2022-11-17T04:26:10.255Z,15.75
2022-11-17T04:28:27.458Z,14.90
2022-11-17T04:30:34.891Z,15.23
2022-11-17T04:32:39.670Z,15.02
2022-11-17T04:34:44.423Z,16.55
2022-11-17T04:36:49.487Z,17.13
2022-11-17T04:38:59.065Z,15.40
2022-11-17T04:41:17.960Z,15.98
2022-11-17T04:43:22.844Z,14.50
2022-11-17T04:45:27.621Z,16.10
2022-11-17T04:47:34.962Z,15.57
2022-11-17T04:49:39.800Z,15.10
2022-11-17T04:51:45.051Z,15.18
2022-11-17T04:55:54.348Z,14.55
2022-11-17T04:57:59.190Z,15.02
2022-11-17T05:00:04.103Z,14.77
2022-11-17T05:02:08.906Z,13.82
2022-11-17T05:04:38.040Z,15.73
2022-11-17T05:06:44.745Z,13.73
2022-11-17T05:08:49.898Z,13.75
2022-11-17T05:11:12.606Z,13.95
2022-11-17T05:13:22.031Z,14.57
2022-11-17T05:15:39.072Z,15.38
2022-11-17T05:17:43.836Z,13.05
2022-11-17T05:19:51.558Z,12.07
2022-11-17T05:21:56.813Z,12.65
2022-11-17T05:26:03.962Z,12.02
2022-11-17T05:28:08.746Z,12.75
2022-11-17T05:30:14.893Z,13.05
2022-11-17T05:32:19.888Z,12.70
2022-11-17T05:34:24.656Z,11.68
2022-11-17T05:36:32.547Z,11.88
2022-11-17T05:38:37.454Z,12.52
2022-11-17T05:40:43.368Z,14.07
2022-11-17T05:42:51.745Z,13.93
2022-11-17T05:44:59.209Z,14.32
2022-11-17T05:47:03.990Z,13.43
2022-11-17T05:49:08.825Z,14.18
2022-11-17T05:51:14.194Z,14.20
2022-11-17T05:53:21.556Z,15.05
2022-11-17T05:55:26.338Z,15.05
2022-11-17T05:57:34.597Z,14.13
2022-11-17T05:59:44.626Z,15.82
2022-11-17T06:01:54.137Z,15.88
2022-11-17T06:04:03.027Z,15.57
2022-11-17T06:06:08.390Z,14.85
2022-11-17T06:10:23.991Z,15.20
2022-11-17T06:12:28.731Z,14.20
2022-11-17T06:14:33.538Z,14.48
2022-11-17T06:16:44.571Z,15.27
2022-11-17T06:18:53.221Z,14.65
2022-11-17T06:20:58.299Z,14.20
2022-11-17T06:23:05.928Z,15.13
2022-11-17T06:25:12.784Z,14.00
2022-11-17T06:27:20.477Z,14.88
2022-11-17T06:29:25.413Z,14.43
2022-11-17T06:31:32.436Z,15.10
2022-11-17T06:33:38.872Z,14.32
2022-11-17T06:35:45.447Z,14.70
2022-11-17T06:37:50.285Z,14.30
2022-11-17T06:39:55.153Z,14.63
2022-11-17T06:41:59.922Z,15.93
2022-11-17T06:44:07.733Z,15.85
2022-11-17T06:46:12.571Z,15.73
2022-11-17T06:48:25.232Z,15.38
2022-11-17T06:50:29.980Z,15.27
2022-11-17T06:52:34.752Z,15.68
2022-11-17T06:54:39.509Z,15.20
2022-11-17T06:56:44.656Z,16.90
2022-11-17T06:58:49.409Z,16.45
2022-11-17T07:00:56.955Z,16.52
2022-11-17T07:03:03.683Z,16.83
2022-11-17T07:05:08.929Z,15.90
2022-11-17T07:09:20.060Z,15.18
2022-11-17T07:11:24.866Z,17.35
2022-11-17T07:13:29.689Z,15.98
2022-11-17T07:15:34.843Z,17.67
2022-11-17T07:17:45.129Z,16.75
2022-11-17T07:19:49.888Z,16.42
2022-11-17T07:21:54.703Z,16.25
2022-11-17T07:23:59.478Z,17.52
2022-11-17T07:26:04.778Z,15.02
2022-11-17T07:30:15.648Z,15.35
2022-11-17T07:32:20.412Z,15.05
2022-11-17T07:34:27.926Z,15.88
2022-11-17T07:36:32.741Z,16.70
2022-11-17T07:38:38.991Z,16.27
2022-11-17T07:40:44.163Z,15.07
2022-11-17T07:42:51.606Z,15.57
2022-11-17T07:44:56.766Z,15.52
2022-11-17T07:47:01.677Z,13.68
2022-11-17T07:49:06.532Z,14.52
2022-11-17T07:51:14.271Z,15.43
2022-11-17T07:53:19.180Z,13.13
2022-11-17T07:55:24.905Z,14.38
2022-11-17T07:57:31.261Z,14.88
2022-11-17T07:59:36.233Z,13.20
2022-11-17T08:01:42.202Z,13.70
2022-11-17T08:03:47.466Z,13.10
2022-11-17T08:05:53.508Z,12.68
2022-11-17T08:08:02.131Z,13.15
2022-11-17T08:10:08.109Z,12.98
2022-11-17T08:12:12.903Z,11.95
2022-11-17T08:14:17.987Z,12.38
2022-11-17T08:18:27.679Z,11.43
2022-11-17T08:20:32.996Z,12.20
2022-11-17T08:24:45.066Z,11.65
2022-11-17T08:26:49.860Z,10.23
2022-11-17T08:28:58.365Z,12.63
2022-11-17T08:31:04.469Z,11.30
2022-11-17T08:33:09.332Z,11.43
2022-11-17T08:35:14.100Z,10.93
2022-11-17T08:37:18.870Z,10.70
2022-11-17T08:39:23.649Z,10.52
2022-11-17T08:41:31.882Z,9.65
2022-11-17T08:43:37.127Z,10.38
2022-11-17T08:47:46.381Z,10.15
2022-11-17T08:49:51.181Z,9.50
2022-11-17T08:51:55.972Z,8.75
2022-11-17T08:54:01.689Z,9.85
2022-11-17T08:56:11.897Z,9.75
2022-11-17T08:58:22.302Z,9.70
2022-11-17T09:00:27.108Z,8.98
2022-11-17T09:02:31.964Z,9.65
2022-11-17T09:04:36.764Z,8.90
2022-11-17T09:06:41.620Z,9.68
2022-11-17T09:08:47.381Z,9.93
2022-11-17T09:10:52.507Z,8.75
2022-11-17T09:12:58.362Z,9.95
2022-11-17T09:15:06.287Z,9.63
2022-11-17T09:17:11.591Z,8.82
2022-11-17T09:21:22.082Z,7.78
2022-11-17T09:23:26.912Z,8.68
2022-11-17T09:25:31.953Z,8.98
2022-11-17T09:27:36.998Z,9.65
2022-11-17T09:29:41.811Z,9.20
2022-11-17T09:31:49.327Z,9.88
2022-11-17T09:33:54.232Z,9.15
2022-11-17T09:36:00.126Z,9.40
2022-11-17T09:38:04.888Z,8.73
2022-11-17T09:40:14.460Z,8.60
2022-11-17T09:42:22.672Z,9.30
2022-11-17T09:44:40.368Z,9.27
2022-11-17T09:47:10.043Z,8.02
2022-11-17T09:49:22.898Z,8.07
2022-11-17T09:51:32.607Z,7.40
2022-11-17T09:53:48.471Z,7.90
2022-11-17T09:55:56.442Z,8.25
2022-11-17T09:58:09.995Z,8.23
2022-11-17T10:00:19.882Z,8.00
2022-11-17T10:02:27.905Z,7.50
2022-11-17T10:04:32.906Z,8.10
2022-11-17T10:06:40.004Z,7.15
2022-11-17T10:08:49.946Z,6.70
2022-11-17T10:10:54.912Z,7.95
2022-11-17T10:13:01.467Z,7.78
2022-11-17T10:15:24.525Z,7.28
2022-11-17T10:17:34.058Z,7.15
2022-11-17T10:19:41.042Z,6.90
2022-11-17T10:21:47.049Z,7.07
2022-11-17T10:23:58.937Z,6.78
2022-11-17T10:26:03.767Z,6.90
2022-11-17T10:28:24.938Z,6.25
2022-11-17T10:30:29.701Z,6.30
2022-11-17T10:32:43.965Z,5.93
2022-11-17T10:34:51.835Z,6.07
2022-11-17T10:36:56.603Z,5.10
2022-11-17T10:39:03.219Z,5.18
2022-11-17T10:41:08.385Z,4.60
2022-11-17T10:45:27.930Z,5.00
2022-11-17T10:47:36.530Z,5.30
2022-11-17T10:49:44.025Z,4.68
2022-11-17T10:52:07.351Z,4.63
2022-11-17T10:54:24.526Z,4.70
2022-11-17T10:56:29.631Z,5.03
2022-11-17T10:58:36.109Z,5.00
2022-11-17T11:00:44.465Z,5.05
2022-11-17T11:02:49.297Z,4.68
2022-11-17T11:05:09.391Z,5.13
2022-11-17T11:07:16.363Z,4.70
2022-11-17T11:09:25.673Z,3.63
2022-11-17T11:11:49.394Z,3.95
2022-11-17T11:13:59.088Z,3.40
2022-11-17T11:16:03.995Z,3.30
2022-11-17T11:18:15.443Z,2.83
2022-11-17T11:20:26.913Z,2.80
2022-11-17T11:22:39.184Z,3.20
2022-11-17T11:24:51.716Z,3.40
2022-11-17T11:27:08.012Z,3.40
2022-11-17T11:29:23.280Z,3.08
2022-11-17T11:31:34.086Z,4.68
2022-11-17T11:33:42.146Z,2.90
2022-11-17T11:36:04.676Z,2.80
2022-11-17T11:38:26.937Z,2.88
2022-11-17T11:40:39.939Z,3.90
2022-11-17T11:42:53.082Z,2.70
2022-11-17T11:45:10.011Z,2.30
2022-11-17T11:47:27.446Z,2.65
2022-11-17T11:49:40.461Z,2.92
2022-11-17T11:51:51.611Z,2.30
2022-11-17T11:54:04.808Z,2.33
2022-11-17T11:56:21.507Z,2.20
2022-11-17T11:58:27.463Z,2.53
2022-11-17T12:00:32.376Z,2.30
2022-11-17T12:02:45.044Z,2.75
2022-11-17T12:04:55.485Z,2.58
2022-11-17T12:07:15.402Z,2.28
2022-11-17T12:10:01.872Z,1.90
2022-11-17T12:12:12.226Z,1.90
2022-11-17T12:14:20.974Z,1.77
2022-11-17T12:16:33.991Z,2.10
2022-11-17T12:18:38.834Z,2.25
2022-11-17T12:21:04.037Z,1.80
2022-11-17T12:23:24.756Z,1.90
2022-11-17T12:25:32.875Z,2.40
2022-11-17T12:27:48.735Z,1.65
2022-11-17T12:29:53.537Z,1.90
2022-11-17T12:31:59.390Z,2.20
2022-11-17T12:34:30.676Z,2.30
2022-11-17T12:36:36.417Z,2.15
2022-11-17T12:38:44.556Z,1.70
2022-11-17T12:40:50.900Z,1.85
2022-11-17T12:43:23.187Z,1.85
2022-11-17T12:45:28.195Z,1.83
2022-11-17T12:47:35.179Z,1.83
2022-11-17T12:49:57.201Z,1.88
2022-11-17T12:52:08.410Z,2.03
2022-11-17T12:54:27.530Z,1.98
2022-11-17T12:56:47.238Z,2.15
2022-11-17T12:59:16.666Z,2.67
2022-11-17T13:01:29.634Z,2.55
2022-11-17T13:03:44.357Z,2.10
2022-11-17T13:06:33.815Z,1.48
2022-11-17T13:08:34.419Z,1.15
2022-11-17T13:10:41.951Z,1.00
2022-11-17T13:12:46.783Z,0.73
2022-11-17T13:14:56.596Z,0.70
2022-11-17T13:17:02.959Z,1.08
2022-11-17T13:19:22.603Z,0.70
2022-11-17T13:21:32.627Z,1.00
2022-11-17T13:23:37.513Z,1.02
2022-11-17T13:25:44.949Z,1.10
2022-11-17T13:27:56.017Z,1.10
2022-11-17T13:30:17.222Z,1.23
2022-11-17T13:32:24.042Z,0.98
2022-11-17T13:34:29.063Z,1.55
2022-11-17T13:36:33.891Z,1.45
2022-11-17T13:38:38.719Z,0.88
2022-11-17T13:40:46.666Z,1.13
2022-11-17T13:42:52.539Z,1.00
2022-11-17T13:44:59.095Z,0.93
2022-11-17T13:47:22.063Z,1.10
2022-11-17T13:49:36.425Z,0.88
2022-11-17T13:51:49.235Z,1.00
2022-11-17T13:53:56.998Z,0.90
2022-11-17T13:56:04.530Z,1.55
2022-11-17T13:58:26.259Z,1.70
2022-11-17T14:00:33.283Z,1.75
2022-11-17T14:02:38.063Z,1.15
2022-11-17T14:04:42.864Z,1.17
2022-11-17T14:06:59.070Z,1.17
2022-11-17T14:09:08.506Z,1.33
2022-11-17T14:11:30.421Z,1.63
2022-11-17T14:13:41.488Z,2.63
2022-11-17T14:15:54.620Z,3.08
2022-11-17T14:18:01.764Z,2.75
2022-11-17T14:20:20.942Z,2.22
2022-11-17T14:22:31.806Z,3.50
2022-11-17T14:24:37.526Z,2.78
2022-11-17T14:26:49.425Z,2.75
2022-11-17T14:28:56.790Z,2.30
2022-11-17T14:31:01.577Z,1.98
2022-11-17T14:33:12.090Z,2.78
2022-11-17T14:37:23.222Z,2.00
2022-11-17T14:39:28.111Z,2.38
2022-11-17T14:41:33.136Z,2.83
2022-11-17T14:43:40.504Z,2.88
2022-11-17T14:45:45.340Z,3.05
2022-11-17T14:47:51.342Z,3.20
2022-11-17T14:49:56.240Z,3.00
2022-11-17T14:52:02.531Z,3.63
2022-11-17T14:54:07.535Z,3.55
2022-11-17T14:58:18.060Z,2.55
2022-11-17T15:00:25.704Z,2.33
2022-11-17T15:02:30.606Z,2.63
2022-11-17T15:04:49.997Z,3.17
2022-11-17T15:06:55.693Z,3.10
2022-11-17T15:09:03.447Z,3.15
2022-11-17T15:11:09.039Z,3.50
2022-11-17T15:13:14.216Z,2.83
2022-11-17T15:15:19.236Z,3.10
2022-11-17T15:17:27.252Z,4.28
2022-11-17T15:19:32.441Z,5.15
2022-11-17T15:21:37.385Z,5.25
2022-11-17T15:23:43.714Z,6.47
2022-11-17T15:25:48.728Z,4.63
2022-11-17T15:27:54.266Z,4.88
2022-11-17T15:30:03.994Z,4.25
2022-11-17T15:32:09.248Z,4.50
2022-11-17T15:36:26.008Z,8.38
2022-11-17T15:38:31.519Z,9.60
2022-11-17T15:40:36.661Z,6.82
2022-11-17T15:42:41.497Z,5.70
2022-11-17T15:44:46.329Z,5.90
2022-11-17T15:46:51.131Z,5.65
2022-11-17T15:48:56.273Z,5.45
2022-11-17T15:53:09.456Z,5.60
2022-11-17T15:55:14.269Z,6.55
2022-11-17T15:57:19.182Z,6.38
2022-11-17T15:59:24.035Z,4.30
2022-11-17T16:01:30.688Z,4.35
2022-11-17T16:03:35.608Z,4.63
2022-11-17T16:05:40.494Z,4.47
2022-11-17T16:07:47.963Z,5.95
2022-11-17T16:09:54.756Z,5.13
2022-11-17T16:11:59.695Z,5.60
2022-11-17T16:14:05.328Z,5.43
2022-11-17T16:16:13.311Z,4.47
2022-11-17T16:18:18.184Z,3.78
2022-11-17T16:20:23.052Z,3.95
2022-11-17T16:22:27.973Z,4.22
2022-11-17T16:24:46.829Z,4.93
2022-11-17T16:26:51.561Z,4.50
2022-11-17T16:28:59.315Z,4.05
2022-11-17T16:31:14.962Z,3.28
2022-11-17T16:33:27.714Z,4.68
2022-11-17T16:35:35.696Z,7.05
2022-11-17T16:37:40.583Z,5.82
2022-11-17T16:39:49.244Z,4.65
2022-11-17T16:41:55.779Z,4.00
2022-11-17T16:44:00.763Z,3.78
2022-11-17T16:46:18.405Z,3.45
2022-11-17T16:48:23.392Z,3.63
2022-11-17T16:50:28.358Z,3.33
2022-11-17T16:52:33.346Z,3.50
2022-11-17T16:54:38.212Z,6.03
2022-11-17T16:56:45.626Z,6.22
2022-11-17T16:58:51.921Z,5.35
2022-11-17T17:00:57.774Z,4.93
2022-11-17T17:03:02.851Z,4.82
2022-11-17T17:07:16.129Z,5.57
2022-11-17T17:09:41.232Z,9.88
2022-11-17T17:11:49.293Z,12.68
2022-11-17T17:13:57.140Z,13.95
2022-11-17T17:16:06.043Z,12.00
2022-11-17T17:18:13.703Z,10.80
2022-11-17T17:20:18.997Z,9.15
2022-11-17T17:24:28.598Z,5.50
2022-11-17T17:26:35.158Z,4.93
2022-11-17T17:28:44.761Z,5.32
2022-11-17T17:30:56.658Z,6.30
2022-11-17T17:33:04.733Z,6.95
2022-11-17T17:35:10.602Z,6.03
2022-11-17T17:37:20.223Z,5.95
2022-11-17T17:39:25.220Z,6.32
2022-11-17T17:41:32.127Z,6.40
2022-11-17T17:43:43.204Z,6.00
2022-11-17T17:45:48.181Z,5.85
2022-11-17T17:47:56.479Z,6.05
2022-11-17T17:50:02.205Z,6.57
2022-11-17T17:52:13.512Z,6.45
2022-11-17T17:54:20.913Z,6.93
2022-11-17T17:56:26.000Z,6.40
2022-11-17T18:00:38.083Z,7.60
2022-11-17T18:02:42.993Z,10.05
2022-11-17T18:04:47.828Z,9.15
2022-11-17T18:06:52.708Z,13.63
2022-11-17T18:08:57.536Z,22.40
2022-11-17T18:11:03.007Z,14.77
2022-11-17T18:13:10.624Z,10.60
2022-11-17T18:15:17.846Z,10.70
2022-11-17T18:17:25.217Z,8.27
2022-11-17T18:19:33.209Z,8.20
2022-11-17T18:21:39.027Z,6.60
2022-11-17T18:23:44.779Z,6.40
2022-11-17T18:25:49.584Z,6.78
2022-11-17T18:27:54.435Z,5.75
2022-11-17T18:29:59.175Z,5.50
2022-11-17T18:32:03.945Z,5.90
2022-11-17T18:34:18.880Z,5.68
2022-11-17T18:36:23.996Z,6.30
2022-11-17T18:40:34.715Z,6.13
2022-11-17T18:42:39.482Z,5.53
2022-11-17T18:44:44.451Z,5.93
2022-11-17T18:46:49.576Z,5.65
2022-11-17T18:53:24.717Z,5.13
2022-11-17T18:55:29.781Z,5.90
2022-11-17T18:57:34.638Z,5.80
2022-11-17T18:59:39.572Z,6.68
2022-11-17T19:01:46.913Z,6.95
2022-11-17T19:03:53.638Z,9.57
2022-11-17T19:05:58.484Z,8.43
2022-11-17T19:08:05.919Z,7.85
2022-11-17T19:10:11.814Z,7.45
2022-11-17T19:12:19.656Z,11.30
2022-11-17T19:14:24.450Z,9.48
2022-11-17T19:16:29.513Z,8.90
2022-11-17T19:18:34.425Z,9.00
2022-11-17T19:20:39.303Z,7.05
2022-11-17T19:22:44.773Z,6.68
2022-11-17T19:24:52.181Z,7.72
2022-11-17T19:26:57.077Z,9.85
2022-11-17T19:29:03.425Z,8.35
2022-11-17T19:31:10.943Z,7.32
2022-11-17T19:33:15.687Z,8.13
2022-11-17T19:35:22.835Z,21.48
2022-11-17T19:37:27.918Z,8.73
2022-11-17T19:39:32.693Z,7.93
2022-11-17T19:41:42.361Z,7.47
2022-11-17T19:43:47.390Z,6.03
2022-11-17T19:45:59.478Z,6.88
2022-11-17T19:48:04.315Z,6.07
2022-11-17T19:50:10.093Z,7.72
2022-11-17T19:52:15.027Z,7.70
2022-11-17T19:54:19.845Z,7.65
2022-11-17T19:56:25.900Z,7.63
2022-11-17T19:58:33.267Z,6.93
2022-11-17T20:00:38.117Z,6.70
2022-11-17T20:02:43.092Z,7.07
2022-11-17T20:04:47.918Z,7.25
2022-11-17T20:06:52.842Z,7.18
2022-11-17T20:11:11.077Z,6.47
2022-11-17T20:13:18.860Z,6.90
2022-11-17T20:15:34.572Z,7.25
2022-11-17T20:17:40.345Z,7.40
2022-11-17T20:21:50.368Z,9.77
2022-11-17T20:23:55.381Z,10.38
2022-11-17T20:26:00.243Z,8.48
2022-11-17T20:28:05.047Z,6.75
2022-11-17T20:30:15.193Z,6.57
2022-11-17T20:32:23.171Z,10.20
2022-11-17T20:34:28.002Z,11.02
2022-11-17T20:36:34.072Z,10.90
2022-11-17T20:38:39.015Z,10.93
2022-11-17T20:40:43.832Z,11.88
2022-11-17T20:42:48.630Z,10.48
2022-11-17T20:44:53.485Z,10.93
2022-11-17T20:46:58.513Z,11.25
2022-11-17T20:49:07.543Z,11.93
2022-11-17T20:51:14.746Z,13.43
2022-11-17T20:53:19.516Z,13.68
2022-11-17T20:55:24.323Z,11.55
2022-11-17T20:57:29.167Z,10.50
2022-11-17T20:59:33.996Z,9.82
2022-11-17T21:01:38.906Z,7.80
2022-11-17T21:03:44.069Z,7.15
2022-11-17T21:06:00.412Z,6.57
2022-11-17T21:08:05.248Z,5.72
2022-11-17T21:10:11.116Z,5.50
2022-11-17T21:12:15.960Z,5.90
2022-11-17T21:14:20.743Z,5.75
2022-11-17T21:16:25.707Z,5.68
2022-11-17T21:18:30.996Z,5.82
2022-11-17T21:20:36.268Z,6.10
2022-11-17T21:24:48.368Z,7.43
2022-11-17T21:26:54.579Z,7.97
2022-11-17T21:29:05.970Z,7.90
2022-11-17T21:31:14.454Z,6.85
2022-11-17T21:33:19.739Z,6.53
2022-11-17T21:37:29.738Z,6.40
2022-11-17T21:39:37.704Z,5.90
2022-11-17T21:41:45.528Z,5.50
2022-11-17T21:43:51.780Z,4.88
2022-11-17T21:45:56.609Z,4.55
2022-11-17T21:48:01.451Z,5.28
2022-11-17T21:50:06.780Z,4.88
2022-11-17T21:54:17.863Z,4.05
2022-11-17T21:56:26.828Z,4.65
2022-11-17T21:58:31.806Z,4.78
2022-11-17T22:00:37.150Z,4.47
2022-11-17T22:02:44.340Z,4.13
2022-11-17T22:04:49.141Z,4.43
2022-11-17T22:06:54.103Z,4.28
2022-11-17T22:08:59.632Z,4.30
2022-11-17T22:11:06.610Z,4.22
2022-11-17T22:13:14.139Z,4.47
2022-11-17T22:15:19.540Z,4.22
2022-11-17T22:17:24.753Z,5.03
2022-11-17T22:21:36.465Z,4.82
2022-11-17T22:23:41.554Z,4.13
2022-11-17T22:25:46.385Z,4.45
2022-11-17T22:27:51.253Z,4.43
2022-11-17T22:29:58.680Z,4.88
2022-11-17T22:32:03.635Z,4.25
2022-11-17T22:34:08.485Z,4.25
2022-11-17T22:36:14.178Z,4.60
2022-11-17T22:38:19.787Z,4.65
2022-11-17T22:40:24.589Z,4.32
2022-11-17T22:42:29.366Z,3.90
2022-11-17T22:44:34.332Z,3.60
2022-11-17T22:46:43.172Z,4.30
2022-11-17T22:48:47.942Z,4.28
2022-11-17T22:50:52.748Z,4.63
2022-11-17T22:52:55.778Z,3.33
2022-11-17T22:55:00.694Z,3.30
2022-11-17T22:57:05.546Z,3.75
2022-11-17T23:01:15.247Z,3.58
2022-11-17T23:03:22.832Z,3.72
2022-11-17T23:05:27.695Z,3.55
2022-11-17T23:07:32.586Z,4.10
2022-11-17T23:11:45.422Z,2.95
2022-11-17T23:13:50.341Z,3.05
2022-11-17T23:15:55.367Z,3.10
2022-11-17T23:18:00.493Z,3.50
2022-11-17T23:20:09.037Z,3.42
2022-11-17T23:22:14.423Z,3.70
2022-11-17T23:26:24.287Z,4.78
2022-11-17T23:30:33.693Z,4.88
2022-11-17T23:32:38.488Z,4.47
2022-11-17T23:34:43.332Z,5.40
2022-11-17T23:36:50.704Z,6.25
2022-11-17T23:38:58.192Z,6.60
2022-11-17T23:41:03.433Z,4.20
2022-11-17T23:45:14.651Z,4.00
2022-11-17T23:47:19.458Z,4.53
2022-11-17T23:49:24.349Z,3.60
2022-11-17T23:51:30.114Z,3.80
2022-11-17T23:53:37.945Z,3.30
2022-11-17T23:55:43.278Z,3.42
2022-11-17T23:57:48.061Z,3.58
2022-11-17T23:59:52.911Z,4.03
